Time;durP1;ratioP1;P1;durP2;ratioP2;P2;SDS_P1;SDS_P2;PMS_P1;PMS_P2;Temp;Humidity;BMP_temperature;BMP_pressure;BME280_temperature;BME280_humidity;BME280_pressure;Samples;Min_cycle;Max_cycle;Signal;HPM_P1;HPM_P2
2022/11/22 00:01:30;;;;;;;5.50;3.17;;;19.40;58.80;;;;;;5051993;28;20041;-57
2022/11/22 00:03:55;;;;;;;4.97;2.97;;;19.40;58.80;;;;;;5052249;28;20053;-57
2022/11/22 00:06:21;;;;;;;5.50;3.00;;;19.40;58.70;;;;;;5051691;28;20130;-57
2022/11/22 00:08:47;;;;;;;5.28;3.10;;;19.40;58.70;;;;;;5052276;28;20404;-57
2022/11/22 00:11:15;;;;;;;4.82;2.67;;;19.40;58.70;;;;;;5052246;28;20396;-57
2022/11/22 00:13:41;;;;;;;6.35;2.80;;;19.40;58.70;;;;;;5051309;28;20044;-57
2022/11/22 00:16:06;;;;;;;4.88;3.10;;;19.40;58.70;;;;;;5052244;28;20068;-57
2022/11/22 00:18:32;;;;;;;4.22;2.60;;;19.40;58.70;;;;;;5052040;28;20116;-57
2022/11/22 00:21:03;;;;;;;5.60;3.28;;;19.30;58.70;;;;;;5051350;28;20041;-57
2022/11/22 00:23:29;;;;;;;5.25;2.83;;;19.30;58.60;;;;;;5051938;28;20045;-57
2022/11/22 00:25:54;;;;;;;4.72;2.85;;;19.30;58.70;;;;;;5052088;28;20052;-57
2022/11/22 00:28:20;;;;;;;4.53;2.63;;;19.30;58.60;;;;;;5051540;28;20033;-57
2022/11/22 00:30:45;;;;;;;5.07;2.60;;;19.30;58.80;;;;;;5051704;28;20055;-57
2022/11/22 00:33:11;;;;;;;4.80;2.65;;;19.30;58.60;;;;;;5052124;28;20049;-57
2022/11/22 00:35:37;;;;;;;4.18;2.65;;;19.30;58.70;;;;;;5050973;28;20075;-57
2022/11/22 00:38:02;;;;;;;4.88;2.80;;;19.30;58.60;;;;;;5051618;28;20040;-57
2022/11/22 00:40:28;;;;;;;5.43;3.08;;;19.20;58.50;;;;;;5051721;28;20098;-57
2022/11/22 00:42:53;;;;;;;5.57;2.85;;;19.20;58.50;;;;;;5050837;28;20092;-57
2022/11/22 00:45:19;;;;;;;5.75;2.90;;;19.20;58.50;;;;;;5051799;28;20468;-57
2022/11/22 00:47:44;;;;;;;5.32;2.67;;;19.20;58.50;;;;;;5051364;28;20037;-57
2022/11/22 00:50:10;;;;;;;5.22;2.65;;;19.20;59.30;;;;;;5050960;28;20048;-57
2022/11/22 00:52:35;;;;;;;4.47;2.53;;;19.20;58.60;;;;;;5049950;28;20037;-57
2022/11/22 00:55:01;;;;;;;4.30;2.28;;;19.20;58.50;;;;;;5051964;28;20045;-57
2022/11/22 00:57:26;;;;;;;4.65;2.58;;;19.20;58.50;;;;;;5050976;28;20060;-57
2022/11/22 00:59:52;;;;;;;4.28;2.40;;;19.20;58.50;;;;;;5051614;28;20051;-57
2022/11/22 01:02:17;;;;;;;4.00;2.45;;;19.10;58.50;;;;;;5051075;28;20127;-57
2022/11/22 01:04:43;;;;;;;4.40;2.67;;;19.10;58.50;;;;;;5051406;28;20037;-57
2022/11/22 01:07:09;;;;;;;5.22;2.45;;;19.10;58.50;;;;;;5051516;28;20037;-57
2022/11/22 01:09:34;;;;;;;4.18;2.67;;;19.10;58.50;;;;;;5050732;28;20048;-57
2022/11/22 01:12:00;;;;;;;4.10;2.33;;;19.10;58.50;;;;;;5051545;28;20041;-57
2022/11/22 01:14:25;;;;;;;4.30;2.75;;;19.10;58.50;;;;;;5051749;28;20132;-57
2022/11/22 01:16:51;;;;;;;3.63;2.40;;;19.10;58.50;;;;;;5050398;28;20128;-57
2022/11/22 01:19:16;;;;;;;5.22;2.70;;;19.10;58.50;;;;;;5050323;28;20045;-57
2022/11/22 01:21:42;;;;;;;4.07;2.20;;;19.10;58.40;;;;;;5051055;28;20044;-57
2022/11/22 01:24:07;;;;;;;4.43;2.30;;;19.10;58.40;;;;;;5050939;28;20041;-57
2022/11/22 01:26:33;;;;;;;3.33;2.17;;;19.00;58.40;;;;;;5051129;28;20123;-57
2022/11/22 01:28:58;;;;;;;4.35;2.75;;;19.00;58.40;;;;;;5051692;28;20037;-57
2022/11/22 01:31:24;;;;;;;4.68;2.50;;;19.00;58.40;;;;;;5050484;28;20045;-57
2022/11/22 01:33:50;;;;;;;3.75;2.15;;;19.00;58.40;;;;;;5051307;28;20115;-57
2022/11/22 01:36:15;;;;;;;4.57;2.38;;;19.00;58.30;;;;;;5050980;28;20576;-57
2022/11/22 01:38:41;;;;;;;4.30;2.33;;;19.00;58.30;;;;;;5050272;28;20139;-57
2022/11/22 01:41:06;;;;;;;3.45;2.00;;;19.00;58.40;;;;;;5051144;28;20409;-57
2022/11/22 01:43:32;;;;;;;3.95;2.35;;;19.00;58.30;;;;;;5050937;28;20396;-57
2022/11/22 01:45:59;;;;;;;3.42;2.25;;;19.00;58.30;;;;;;5050486;28;20053;-57
2022/11/22 01:48:36;;;;;;;5.90;2.78;;;19.00;58.30;;;;;;5051178;28;20557;-57
2022/11/22 01:51:24;;;;;;;4.32;2.53;;;19.00;58.40;;;;;;5053429;28;20377;-57
2022/11/22 01:53:50;;;;;;;;;;;19.00;58.40;;;;;;5053920;28;20492;-57
2022/11/22 01:56:16;;;;;;;3.70;2.10;;;18.90;58.20;;;;;;5054597;28;19920;-57
2022/11/22 01:58:42;;;;;;;3.50;1.88;;;19.00;58.40;;;;;;5052534;28;20041;-57
2022/11/22 02:01:08;;;;;;;3.78;2.38;;;18.90;58.30;;;;;;5037153;28;20519;-57
2022/11/22 02:03:34;;;;;;;3.92;2.38;;;18.90;58.30;;;;;;5054437;28;20045;-57
2022/11/22 02:05:59;;;;;;;4.80;2.30;;;18.90;58.30;;;;;;5053990;28;20051;-57
2022/11/22 02:08:42;;;;;;;3.75;2.10;;;18.90;58.30;;;;;;5036966;28;20044;-57
2022/11/22 02:11:08;;;;;;;4.13;1.98;;;18.90;58.30;;;;;;5053620;28;20060;-57
2022/11/22 02:13:36;;;;;;;3.60;2.13;;;18.90;58.30;;;;;;5053181;28;20040;-57
2022/11/22 02:16:02;;;;;;;3.40;2.00;;;18.90;58.30;;;;;;5053381;28;20060;-57
2022/11/22 02:18:27;;;;;;;3.97;2.20;;;18.90;58.30;;;;;;5054349;28;20045;-57
2022/11/22 02:20:53;;;;;;;4.20;2.00;;;18.90;58.30;;;;;;5053812;28;20091;-60
2022/11/22 02:23:39;;;;;;;4.25;2.33;;;18.90;58.30;;;;;;5052632;28;20201;-57
2022/11/22 02:26:04;;;;;;;3.33;1.88;;;18.90;58.30;;;;;;5053510;28;20045;-57
2022/11/22 02:28:33;;;;;;;3.38;1.92;;;18.90;58.30;;;;;;5035390;28;20107;-57
2022/11/22 02:30:59;;;;;;;3.53;1.80;;;18.80;58.30;;;;;;5036743;28;20037;-57
2022/11/22 02:33:24;;;;;;;3.60;2.10;;;18.80;58.30;;;;;;5054180;28;20124;-57
2022/11/22 02:35:50;;;;;;;4.45;2.20;;;18.90;58.30;;;;;;5064849;28;20484;-57
2022/11/22 02:38:18;;;;;;;3.35;1.80;;;18.80;58.30;;;;;;5074221;28;20105;-58
2022/11/22 02:41:03;;;;;;;4.07;2.20;;;18.80;58.30;;;;;;5055209;28;20119;-57
2022/11/22 02:43:33;;;;;;;3.22;1.95;;;18.80;58.20;;;;;;5056682;28;20052;-58
2022/11/22 02:46:06;;;;;;;3.00;1.92;;;18.80;58.30;;;;;;5072707;28;20053;-58
2022/11/22 02:48:31;;;;;;;4.03;1.90;;;18.80;58.30;;;;;;5072682;28;20048;-58
2022/11/22 02:50:57;;;;;;;4.03;2.00;;;18.80;58.30;;;;;;5072295;28;20480;-58
2022/11/22 02:53:23;;;;;;;4.18;1.95;;;18.80;58.20;;;;;;5073238;28;20137;-58
2022/11/22 02:55:48;;;;;;;3.25;1.60;;;18.80;58.30;;;;;;5072528;28;20036;-57
2022/11/22 02:58:14;;;;;;;3.33;1.83;;;18.80;58.20;;;;;;5073462;28;20090;-57
2022/11/22 03:00:39;;;;;;;3.78;1.98;;;18.80;58.30;;;;;;5069317;28;20063;-57
2022/11/22 03:03:05;;;;;;;3.13;1.85;;;18.80;58.20;;;;;;5052110;28;20037;-57
2022/11/22 03:05:30;;;;;;;3.53;2.00;;;18.80;58.30;;;;;;5052205;28;20141;-57
2022/11/22 03:07:56;;;;;;;2.75;1.65;;;18.80;58.30;;;;;;5053118;28;20496;-57
2022/11/22 03:10:22;;;;;;;3.35;2.08;;;18.80;58.30;;;;;;5050987;28;20489;-57
2022/11/22 03:12:47;;;;;;;4.50;2.10;;;18.80;58.20;;;;;;5068625;28;20515;-57
2022/11/22 03:15:13;;;;;;;3.35;1.70;;;18.80;58.20;;;;;;5073129;28;20056;-57
2022/11/22 03:17:38;;;;;;;3.28;1.58;;;18.80;58.20;;;;;;5072042;28;20452;-57
2022/11/22 03:20:04;;;;;;;3.35;1.80;;;18.80;58.20;;;;;;5073069;28;20090;-57
2022/11/22 03:22:30;;;;;;;3.45;2.10;;;18.80;58.20;;;;;;5072602;28;20045;-57
2022/11/22 03:24:55;;;;;;;3.35;2.10;;;18.80;58.20;;;;;;5072124;28;20045;-57
2022/11/22 03:27:21;;;;;;;2.38;1.60;;;18.80;58.10;;;;;;5071770;28;20044;-57
2022/11/22 03:29:46;;;;;;;2.95;1.50;;;18.80;58.10;;;;;;5072754;28;20055;-57
2022/11/22 03:32:12;;;;;;;2.28;1.50;;;18.80;58.10;;;;;;5071895;28;20113;-57
2022/11/22 03:34:37;;;;;;;2.85;1.65;;;18.80;58.10;;;;;;5072534;28;20119;-57
2022/11/22 03:37:03;;;;;;;3.38;1.60;;;18.80;58.10;;;;;;5071963;28;20430;-57
2022/11/22 03:39:28;;;;;;;3.17;1.60;;;18.80;58.10;;;;;;5072320;28;20552;-57
2022/11/22 03:41:55;;;;;;;3.38;1.88;;;18.90;58.20;;;;;;5071064;28;20476;-57
2022/11/22 03:44:21;;;;;;;2.63;1.40;;;18.90;58.20;;;;;;5071938;28;20052;-58
2022/11/22 03:46:47;;;;;;;2.63;1.70;;;18.80;58.00;;;;;;5072515;28;20040;-58
2022/11/22 03:49:12;;;;;;;2.35;1.67;;;18.90;58.10;;;;;;5072515;28;20119;-58
2022/11/22 03:51:38;;;;;;;3.55;1.73;;;18.90;58.20;;;;;;5070863;28;20036;-58
2022/11/22 03:54:03;;;;;;;2.63;1.38;;;18.90;58.10;;;;;;5072240;28;20555;-58
2022/11/22 03:56:29;;;;;;;2.70;1.60;;;18.90;58.10;;;;;;5072017;28;20047;-58
2022/11/22 03:58:54;;;;;;;3.33;1.77;;;18.90;58.10;;;;;;5071693;28;20467;-58
2022/11/22 04:01:20;;;;;;;2.28;1.35;;;18.90;58.10;;;;;;5071995;28;20052;-58
2022/11/22 04:03:45;;;;;;;2.47;1.63;;;18.90;58.10;;;;;;5071904;28;20146;-57
2022/11/22 04:06:11;;;;;;;2.42;1.33;;;18.90;58.10;;;;;;5071135;28;20438;-57
2022/11/22 04:08:37;;;;;;;2.58;1.35;;;18.90;58.00;;;;;;5071690;28;20491;-57
2022/11/22 04:11:02;;;;;;;2.70;1.80;;;18.90;58.00;;;;;;5072342;28;20135;-57
2022/11/22 04:16:12;;;;;;;2.28;1.42;;;18.90;58.00;;;;;;5072308;28;20052;-57
2022/11/22 04:18:37;;;;;;;2.38;1.50;;;19.00;58.10;;;;;;5071935;28;20040;-57
2022/11/22 04:25:12;;;;;;;2.17;1.40;;;19.00;58.00;;;;;;5071568;28;20460;-57
2022/11/22 04:26:33;;;;;;;2.45;1.50;;;19.00;58.00;;;;;;5070783;28;20572;-57
2022/11/22 04:28:58;;;;;;;2.58;1.40;;;19.00;58.00;;;;;;5072141;28;20127;-57
2022/11/22 04:34:08;;;;;;;2.30;1.40;;;19.00;58.00;;;;;;5071336;28;20412;-57
2022/11/22 04:36:33;;;;;;;2.78;1.20;;;19.00;58.00;;;;;;5071526;28;20476;-57
2022/11/22 04:38:59;;;;;;;1.83;1.33;;;19.00;58.00;;;;;;5071870;28;20508;-57
2022/11/22 04:41:24;;;;;;;2.88;1.45;;;19.10;58.00;;;;;;5071063;28;20052;-57
2022/11/22 04:46:34;;;;;;;1.98;1.38;;;19.10;57.90;;;;;;5071962;28;20048;-57
2022/11/22 04:49:00;;;;;;;4.00;1.13;;;19.10;57.90;;;;;;5071191;28;20044;-57
2022/11/22 04:54:09;;;;;;;1.65;1.10;;;19.10;57.90;;;;;;5072149;28;20041;-57
2022/11/22 04:56:35;;;;;;;3.42;1.50;;;19.20;58.00;;;;;;5070737;28;20119;-57
2022/11/22 04:59:00;;;;;;;2.20;1.40;;;19.10;57.90;;;;;;5071776;28;20045;-57
2022/11/22 05:01:26;;;;;;;1.83;1.10;;;19.20;57.90;;;;;;5070601;28;20457;-57
2022/11/22 05:03:51;;;;;;;1.33;0.90;;;19.20;57.90;;;;;;5052026;28;20459;-57
2022/11/22 05:06:17;;;;;;;1.92;1.20;;;19.20;57.90;;;;;;5049946;28;20037;-56
2022/11/22 05:08:42;;;;;;;2.13;1.20;;;19.30;57.90;;;;;;5050116;28;20153;-57
2022/11/22 05:11:08;;;;;;;1.73;1.17;;;19.30;57.90;;;;;;5051160;28;20451;-57
2022/11/22 05:13:34;;;;;;;2.45;1.20;;;19.30;57.90;;;;;;5051295;28;20099;-57
2022/11/22 05:16:00;;;;;;;2.15;1.15;;;19.30;57.90;;;;;;5051245;28;20453;-58
2022/11/22 05:18:26;;;;;;;2.42;1.10;;;19.30;57.90;;;;;;5051897;28;20178;-57
2022/11/22 05:20:52;;;;;;;1.50;1.00;;;19.30;57.90;;;;;;5051874;28;20543;-57
2022/11/22 05:26:02;;;;;;;2.08;1.23;;;19.30;57.80;;;;;;5075730;28;20040;-57
2022/11/22 05:28:31;;;;;;;2.20;1.00;;;19.40;57.90;;;;;;5075150;28;20483;-57
2022/11/22 05:30:57;;;;;;;2.17;1.10;;;19.40;57.80;;;;;;5074845;28;20045;-58
2022/11/22 05:33:22;;;;;;;2.08;1.13;;;19.40;57.80;;;;;;5075289;28;20544;-57
2022/11/22 05:35:48;;;;;;;1.67;1.00;;;19.40;57.80;;;;;;5075111;28;20452;-58
2022/11/22 05:38:14;;;;;;;2.17;1.00;;;19.40;57.80;;;;;;5074481;28;20033;-57
2022/11/22 05:40:39;;;;;;;2.25;1.13;;;19.40;57.80;;;;;;5075138;28;20443;-58
2022/11/22 05:43:05;;;;;;;2.60;1.40;;;19.40;57.80;;;;;;5074913;28;20044;-57
2022/11/22 05:45:30;;;;;;;2.45;1.20;;;19.40;57.80;;;;;;5074092;28;20566;-57
2022/11/22 05:47:56;;;;;;;2.00;0.93;;;19.40;57.80;;;;;;5073410;28;20101;-57
2022/11/22 05:50:22;;;;;;;2.17;1.15;;;19.50;57.80;;;;;;5075020;28;20090;-58
2022/11/22 05:52:47;;;;;;;1.55;0.95;;;19.50;57.80;;;;;;5073858;28;20052;-58
2022/11/22 05:55:13;;;;;;;2.13;1.17;;;19.50;57.80;;;;;;5075074;28;20153;-57
2022/11/22 05:57:38;;;;;;;1.80;1.08;;;19.50;57.80;;;;;;5074001;28;20080;-58
2022/11/22 06:00:04;;;;;;;2.03;1.10;;;19.50;57.70;;;;;;5074903;28;20036;-57
2022/11/22 06:02:30;;;;;;;2.08;1.08;;;19.50;57.70;;;;;;5074489;28;20049;-58
2022/11/22 06:04:56;;;;;;;2.13;1.15;;;19.50;57.70;;;;;;5074037;28;20052;-58
2022/11/22 06:07:21;;;;;;;1.33;0.80;;;19.50;57.70;;;;;;5074471;28;20060;-58
2022/11/22 06:09:47;;;;;;;1.98;1.10;;;19.60;57.80;;;;;;5074140;28;20610;-57
2022/11/22 06:12:12;;;;;;;3.22;1.20;;;19.50;57.70;;;;;;5073529;28;20044;-57
2022/11/22 06:14:38;;;;;;;1.60;1.00;;;19.60;57.70;;;;;;5074266;28;20148;-57
2022/11/22 06:17:03;;;;;;;2.38;1.40;;;19.60;57.70;;;;;;5074646;28;20040;-57
2022/11/22 06:19:29;;;;;;;2.97;1.25;;;19.60;57.70;;;;;;5073515;28;20114;-57
2022/11/22 06:21:54;;;;;;;2.60;1.00;;;19.60;57.70;;;;;;5074386;28;20044;-58
2022/11/22 06:24:20;;;;;;;1.83;1.00;;;19.60;57.70;;;;;;5074357;28;20400;-58
2022/11/22 06:26:45;;;;;;;1.98;0.98;;;19.60;57.60;;;;;;5073153;28;20489;-57
2022/11/22 06:29:11;;;;;;;2.22;1.25;;;19.60;57.60;;;;;;5074284;28;20484;-57
2022/11/22 06:31:36;;;;;;;1.73;1.08;;;19.70;57.70;;;;;;5074029;28;20395;-58
2022/11/22 06:34:02;;;;;;;2.13;1.00;;;19.70;57.70;;;;;;5073273;28;20373;-58
2022/11/22 06:36:32;;;;;;;1.83;1.10;;;19.70;57.70;;;;;;5073180;28;20503;-58
2022/11/22 06:38:57;;;;;;;2.28;1.23;;;19.70;57.70;;;;;;5073905;28;20044;-58
2022/11/22 06:41:27;;;;;;;1.52;1.00;;;19.70;57.70;;;;;;5072742;28;20397;-58
2022/11/22 06:43:54;;;;;;;2.55;1.00;;;19.70;57.70;;;;;;5074148;28;20131;-58
2022/11/22 06:46:21;;;;;;;2.08;0.90;;;19.70;57.70;;;;;;5074174;28;20116;-58
2022/11/22 06:48:46;;;;;;;2.40;1.00;;;19.70;57.70;;;;;;5073084;28;20044;-58
2022/11/22 06:51:19;;;;;;;1.42;0.95;;;19.70;57.60;;;;;;5074049;28;20123;-58
2022/11/22 06:53:45;;;;;;;1.77;1.00;;;19.70;57.60;;;;;;5073347;28;20082;-58
2022/11/22 06:56:27;;;;;;;2.58;0.98;;;19.70;57.60;;;;;;5072864;28;20036;-58
2022/11/22 06:58:53;;;;;;;1.92;1.10;;;19.70;57.60;;;;;;5073692;28;20086;-58
2022/11/22 07:01:24;;;;;;;3.60;1.13;;;19.80;57.70;;;;;;5073078;28;20048;-57
2022/11/22 07:03:49;;;;;;;2.50;1.15;;;19.80;57.70;;;;;;5073309;28;20049;-58
2022/11/22 07:06:16;;;;;;;2.42;1.10;;;19.80;57.60;;;;;;5073604;28;20447;-58
2022/11/22 07:08:42;;;;;;;2.20;0.88;;;19.80;57.60;;;;;;5072287;28;20049;-58
2022/11/22 07:11:18;;;;;;;2.33;1.08;;;19.80;57.60;;;;;;5073768;28;20059;-58
2022/11/22 07:13:44;;;;;;;1.83;1.20;;;19.80;57.60;;;;;;5073211;28;20044;-57
2022/11/22 07:16:12;;;;;;;1.92;1.02;;;19.80;57.60;;;;;;5072935;28;20055;-58
2022/11/22 07:18:38;;;;;;;3.25;1.15;;;19.80;57.50;;;;;;5073060;28;20495;-58
2022/11/22 07:21:08;;;;;;;3.15;1.45;;;19.80;57.50;;;;;;5073536;28;20059;-58
2022/11/22 07:23:33;;;;;;;1.75;1.02;;;19.90;57.60;;;;;;5054212;28;20048;-58
2022/11/22 07:25:59;;;;;;;3.45;1.40;;;19.90;57.60;;;;;;5053463;28;20037;-58
2022/11/22 07:28:25;;;;;;;3.58;1.30;;;19.90;57.50;;;;;;5052996;28;20060;-57
2022/11/22 07:30:50;;;;;;;2.42;1.30;;;19.90;57.60;;;;;;5052014;28;20041;-57
2022/11/22 07:33:16;;;;;;;3.08;1.75;;;19.90;57.60;;;;;;5053112;28;20048;-58
2022/11/22 07:35:41;;;;;;;2.65;1.20;;;19.90;57.60;;;;;;5052755;28;20128;-58
2022/11/22 07:38:07;;;;;;;5.15;1.42;;;19.90;57.60;;;;;;5052029;28;20076;-58
2022/11/22 07:40:32;;;;;;;2.83;1.17;;;19.90;57.60;;;;;;5052512;28;20118;-57
2022/11/22 07:42:58;;;;;;;5.28;1.17;;;19.90;57.70;;;;;;5052390;28;20056;-58
2022/11/22 07:45:24;;;;;;;4.80;1.33;;;19.90;57.70;;;;;;5052060;28;20049;-57
2022/11/22 07:47:49;;;;;;;4.82;1.63;;;19.90;57.80;;;;;;5050518;28;20033;-58
2022/11/22 07:50:15;;;;;;;2.75;1.10;;;19.90;58.00;;;;;;5051908;28;20099;-58
2022/11/22 07:52:40;;;;;;;2.78;1.13;;;19.90;58.20;;;;;;5052499;28;20099;-58
2022/11/22 07:55:06;;;;;;;4.88;1.15;;;19.90;58.30;;;;;;5052680;28;20041;-58
2022/11/22 07:57:32;;;;;;;3.47;1.38;;;20.00;58.60;;;;;;5051713;28;20065;-58
2022/11/22 07:59:58;;;;;;;7.28;1.30;;;20.00;58.70;;;;;;5052541;28;20136;-58
2022/11/22 08:02:24;;;;;;;2.47;1.02;;;20.00;58.80;;;;;;5052565;28;20049;-57
2022/11/22 08:04:50;;;;;;;3.65;1.00;;;20.10;59.00;;;;;;5051340;28;20048;-57
2022/11/22 08:07:15;;;;;;;4.03;1.20;;;20.00;59.00;;;;;;5052646;28;20056;-57
2022/11/22 08:09:41;;;;;;;4.18;1.17;;;20.00;59.00;;;;;;5052300;28;20048;-57
2022/11/22 08:12:06;;;;;;;2.38;1.00;;;20.10;59.10;;;;;;5051827;28;20056;-57
2022/11/22 08:14:32;;;;;;;6.22;1.85;;;20.10;59.20;;;;;;5067940;28;20036;-57
2022/11/22 08:16:57;;;;;;;3.78;1.20;;;20.20;59.30;;;;;;5072428;28;20404;-57
2022/11/22 08:19:23;;;;;;;4.07;1.40;;;20.10;59.30;;;;;;5069150;28;20589;-57
2022/11/22 08:21:49;;;;;;;2.80;1.50;;;20.20;59.50;;;;;;5051637;28;20398;-58
2022/11/22 08:24:14;;;;;;;3.40;1.40;;;20.20;59.50;;;;;;5052184;28;20044;-57
2022/11/22 08:26:40;;;;;;;3.38;1.25;;;20.20;59.50;;;;;;5050975;28;20073;-58
2022/11/22 08:29:06;;;;;;;2.60;1.10;;;20.20;59.40;;;;;;5051894;28;20476;-58
2022/11/22 08:31:32;;;;;;;1.58;0.90;;;20.20;59.30;;;;;;5051622;28;20033;-58
2022/11/22 08:33:57;;;;;;;4.88;1.20;;;20.20;59.50;;;;;;5051247;28;20448;-58
2022/11/22 08:36:23;;;;;;;4.35;1.05;;;20.30;59.60;;;;;;5051822;28;20078;-57
2022/11/22 08:38:48;;;;;;;5.05;1.38;;;20.30;59.70;;;;;;5051501;28;20052;-59
2022/11/22 08:41:14;;;;;;;4.13;1.20;;;20.30;59.60;;;;;;5051201;28;20087;-59
2022/11/22 08:43:40;;;;;;;3.13;1.45;;;20.30;59.50;;;;;;5051315;28;20420;-58
2022/11/22 08:46:05;;;;;;;3.28;1.23;;;20.30;59.40;;;;;;5051933;28;20041;-57
2022/11/22 08:48:32;;;;;;;4.03;1.20;;;20.30;59.50;;;;;;5051059;28;20041;-58
2022/11/22 08:50:59;;;;;;;5.15;1.25;;;20.30;59.60;;;;;;5051981;28;20037;-57
2022/11/22 08:53:25;;;;;;;2.63;1.00;;;20.30;59.70;;;;;;5051944;28;20049;-57
2022/11/22 08:55:50;;;;;;;5.53;1.50;;;20.30;59.70;;;;;;5051233;28;20044;-58
2022/11/22 08:58:16;;;;;;;5.13;1.17;;;20.30;59.70;;;;;;5053162;28;20033;-57
2022/11/22 09:00:42;;;;;;;3.80;1.27;;;20.30;59.70;;;;;;5054742;28;20049;-57
2022/11/22 09:03:07;;;;;;;4.28;1.10;;;20.40;59.70;;;;;;5055745;28;20499;-58
2022/11/22 09:05:33;;;;;;;4.00;1.23;;;20.30;59.40;;;;;;5055262;28;20045;-57
2022/11/22 09:07:59;;;;;;;4.05;1.15;;;20.40;59.40;;;;;;5054869;28;20128;-57
2022/11/22 09:10:24;;;;;;;4.32;1.30;;;20.40;59.40;;;;;;5071053;28;20041;-57
2022/11/22 09:12:50;;;;;;;4.75;1.20;;;20.40;59.50;;;;;;5075683;28;20051;-58
2022/11/22 09:15:15;;;;;;;3.60;1.00;;;20.40;59.50;;;;;;5075099;28;20457;-57
2022/11/22 09:17:42;;;;;;;4.15;1.23;;;20.40;59.50;;;;;;5075624;28;20441;-57
2022/11/22 09:20:07;;;;;;;3.85;1.20;;;20.40;59.60;;;;;;5073462;28;20040;-57
2022/11/22 09:22:33;;;;;;;3.55;1.17;;;20.40;59.70;;;;;;5054530;28;20364;-57
2022/11/22 09:24:59;;;;;;;5.07;1.23;;;20.40;59.70;;;;;;5055746;28;20037;-57
2022/11/22 09:27:24;;;;;;;4.10;0.93;;;20.40;59.70;;;;;;5056639;28;20488;-57
2022/11/22 09:29:50;;;;;;;3.92;1.10;;;20.40;59.70;;;;;;5074268;28;20036;-57
2022/11/22 09:32:16;;;;;;;3.42;1.15;;;20.40;59.70;;;;;;5075238;28;20470;-56
2022/11/22 09:34:41;;;;;;;4.60;1.10;;;20.40;59.60;;;;;;5074610;28;20583;-57
2022/11/22 09:37:07;;;;;;;5.13;1.38;;;20.40;59.60;;;;;;5074295;28;20127;-57
2022/11/22 09:39:32;;;;;;;3.03;1.30;;;20.40;59.70;;;;;;5074839;28;20131;-57
2022/11/22 09:42:01;;;;;;;4.32;1.35;;;20.40;59.70;;;;;;5074975;28;20064;-57
2022/11/22 09:44:34;;;;;;;3.42;1.20;;;20.40;59.70;;;;;;5074019;28;20049;-57
2022/11/22 09:47:32;;;;;;;5.15;1.45;;;20.40;59.80;;;;;;5073814;28;20438;-56
2022/11/22 09:50:21;;;;;;;2.85;1.33;;;20.40;59.70;;;;;;5073158;28;20036;-58
2022/11/22 09:53:20;;;;;;;4.65;2.00;;;20.40;59.70;;;;;;5031809;28;20049;-60
2022/11/22 09:55:47;;;;;;;4.30;1.75;;;20.40;59.80;;;;;;4994237;28;20054;-58
2022/11/22 09:58:30;;;;;;;5.53;1.52;;;20.40;59.70;;;;;;5052663;28;20041;-57
2022/11/22 10:01:24;;;;;;;6.03;2.00;;;20.40;59.50;;;;;;5037178;28;20048;-58
2022/11/22 10:04:14;;;;;;;4.72;1.77;;;20.30;59.50;;;;;;5052448;28;20045;-59
2022/11/22 10:06:41;;;;;;;4.68;1.67;;;20.30;59.40;;;;;;5039150;28;20496;-59
2022/11/22 10:09:45;;;;;;;5.15;2.15;;;20.30;59.50;;;;;;5054085;28;20382;-57
2022/11/22 10:12:38;;;;;;;5.20;2.00;;;20.30;59.40;;;;;;5050860;28;20047;-58
2022/11/22 10:15:28;;;;;;;8.15;1.90;;;20.30;59.50;;;;;;5042410;28;20053;-58
2022/11/22 10:18:03;;;;;;;6.63;1.88;;;20.20;59.80;;;;;;5052013;28;20045;-57
2022/11/22 10:20:30;;;;;;;10.65;2.28;;;20.20;59.70;;;;;;5052342;28;20086;-58
2022/11/22 10:22:56;;;;;;;3.85;2.20;;;20.30;59.70;;;;;;5053260;28;20049;-58
2022/11/22 10:25:28;;;;;;;5.40;2.50;;;20.20;59.60;;;;;;5051329;28;20052;-57
2022/11/22 10:28:31;;;;;;;6.35;2.40;;;20.20;59.70;;;;;;5052476;28;20124;-57
2022/11/22 10:31:07;;;;;;;6.22;2.33;;;20.20;59.70;;;;;;5052660;28;20477;-57
2022/11/22 10:33:58;;;;;;;5.90;2.13;;;20.10;59.70;;;;;;5050278;28;20048;-57
2022/11/22 10:36:44;;;;;;;5.22;2.17;;;20.20;59.80;;;;;;5042495;28;20052;-57
2022/11/22 10:39:18;;;;;;;4.82;2.05;;;20.10;59.80;;;;;;5073420;28;20420;-57
2022/11/22 10:41:49;;;;;;;7.60;2.28;;;20.20;59.90;;;;;;5073670;28;20179;-57
2022/11/22 10:44:18;;;;;;;6.57;2.65;;;20.20;60.00;;;;;;5074054;28;20048;-57
2022/11/22 10:46:51;;;;;;;5.65;2.28;;;20.20;60.00;;;;;;5072897;28;20041;-57
2022/11/22 10:49:40;;;;;;;5.82;2.00;;;20.10;60.00;;;;;;5072561;28;20052;-57
2022/11/22 10:52:27;;;;;;;7.05;2.42;;;20.10;60.00;;;;;;5072763;28;20097;-58
2022/11/22 10:55:30;;;;;;;5.82;2.28;;;20.10;60.00;;;;;;5057073;28;20395;-57
2022/11/22 10:58:28;;;;;;;5.80;2.30;;;20.10;60.00;;;;;;5072388;28;20378;-57
2022/11/22 11:01:14;;;;;;;5.82;2.13;;;20.10;60.00;;;;;;5071689;28;20395;-57
2022/11/22 11:03:41;;;;;;;5.30;1.92;;;20.10;60.10;;;;;;5072337;28;20119;-58
2022/11/22 11:06:33;;;;;;;5.78;2.03;;;20.10;60.10;;;;;;5073667;28;20037;-57
2022/11/22 11:09:10;;;;;;;6.38;2.20;;;20.10;60.10;;;;;;5057907;28;20052;-57
2022/11/22 11:11:37;;;;;;;4.28;2.17;;;20.10;60.10;;;;;;5072989;28;20055;-58
2022/11/22 11:14:26;;;;;;;3.63;2.05;;;20.10;60.20;;;;;;5072102;28;20059;-58
2022/11/22 11:16:52;;;;;;;5.63;2.53;;;20.10;60.30;;;;;;5073504;28;20044;-57
2022/11/22 11:19:24;;;;;;;4.65;2.00;;;20.10;60.20;;;;;;5071946;28;20426;-57
2022/11/22 11:22:08;;;;;;;6.15;2.13;;;20.10;60.30;;;;;;5070762;28;20105;-58
2022/11/22 11:24:34;;;;;;;4.95;1.90;;;20.10;60.20;;;;;;5072901;28;20080;-57
2022/11/22 11:27:00;;;;;;;4.88;1.90;;;20.10;60.20;;;;;;5071976;28;20472;-58
2022/11/22 11:29:41;;;;;;;5.38;2.00;;;20.10;60.10;;;;;;5072352;28;20097;-58
2022/11/22 11:32:18;;;;;;;5.75;2.80;;;20.10;60.00;;;;;;5073143;28;20041;-58
2022/11/22 11:34:56;;;;;;;6.88;2.63;;;20.10;59.70;;;;;;5071725;28;20127;-58
2022/11/22 11:37:30;;;;;;;6.88;2.70;;;20.10;59.50;;;;;;5071104;28;20375;-58
2022/11/22 11:39:56;;;;;;;5.35;2.78;;;20.10;59.40;;;;;;5073239;28;20500;-58
2022/11/22 11:42:23;;;;;;;6.05;2.88;;;20.10;59.20;;;;;;5066685;28;20060;-58
2022/11/22 11:44:48;;;;;;;6.88;3.22;;;20.10;59.10;;;;;;5051052;28;20053;-59
2022/11/22 11:47:19;;;;;;;6.95;3.10;;;20.10;59.20;;;;;;5051437;28;20037;-58
2022/11/22 11:49:51;;;;;;;8.55;3.13;;;20.10;59.30;;;;;;5051495;28;20485;-58
2022/11/22 11:52:19;;;;;;;7.70;2.92;;;20.10;59.50;;;;;;5051666;28;20734;-58
2022/11/22 11:54:45;;;;;;;8.98;3.30;;;20.10;59.70;;;;;;5034553;28;20045;-58
2022/11/22 11:57:15;;;;;;;5.60;2.47;;;20.10;59.80;;;;;;5050193;28;20485;-58
2022/11/22 11:59:41;;;;;;;6.75;2.95;;;20.10;60.00;;;;;;5050925;28;20037;-58
2022/11/22 12:02:12;;;;;;;5.10;2.72;;;20.10;60.00;;;;;;5052473;28;20128;-58
2022/11/22 12:04:58;;;;;;;5.35;2.63;;;20.10;60.00;;;;;;5049307;28;20044;-58
2022/11/22 12:07:33;;;;;;;6.90;2.55;;;20.20;60.10;;;;;;5050508;28;20037;-58
2022/11/22 12:09:58;;;;;;;8.00;2.95;;;20.10;60.10;;;;;;5057573;28;20099;-58
2022/11/22 12:12:43;;;;;;;6.00;2.60;;;20.10;60.20;;;;;;5070685;28;20480;-58
2022/11/22 12:15:25;;;;;;;5.45;2.67;;;20.20;60.10;;;;;;5072034;28;20515;-58
2022/11/22 12:17:59;;;;;;;6.82;2.85;;;20.20;60.10;;;;;;5054246;28;20040;-58
2022/11/22 12:20:28;;;;;;;6.20;2.40;;;20.20;60.00;;;;;;5054861;28;20044;-58
2022/11/22 12:23:24;;;;;;;5.43;2.40;;;20.20;60.00;;;;;;5054630;28;20048;-58
2022/11/22 12:25:50;;;;;;;6.45;2.55;;;20.20;59.90;;;;;;5067853;28;20052;-58
2022/11/22 12:28:23;;;;;;;5.97;2.50;;;20.10;59.90;;;;;;5054316;28;20051;-58
2022/11/22 12:30:55;;;;;;;5.47;2.25;;;20.20;59.90;;;;;;5054053;28;20047;-58
2022/11/22 12:33:31;;;;;;;5.22;2.80;;;20.10;59.80;;;;;;5069698;28;20052;-58
2022/11/22 12:35:57;;;;;;;4.40;2.40;;;20.20;59.80;;;;;;5072134;28;20032;-56
2022/11/22 12:38:33;;;;;;;7.18;2.28;;;20.20;59.80;;;;;;5063607;28;20377;-57
2022/11/22 12:41:01;;;;;;;5.60;2.22;;;20.10;59.80;;;;;;5037358;28;20037;-57
2022/11/22 12:43:31;;;;;;;5.25;2.13;;;20.20;59.90;;;;;;5057198;28;20128;-59
2022/11/22 12:45:59;;;;;;;5.40;2.47;;;20.10;60.00;;;;;;5060567;28;20056;-58
2022/11/22 12:48:45;;;;;;;4.60;2.10;;;20.10;60.10;;;;;;5050220;28;20047;-59
2022/11/22 12:51:42;;;;;;;4.85;1.95;;;20.20;60.10;;;;;;5033314;28;20116;-58
2022/11/22 12:54:11;;;;;;;4.40;2.30;;;20.20;60.20;;;;;;5050773;28;20430;-59
2022/11/22 12:57:10;;;;;;;7.05;2.08;;;20.20;60.20;;;;;;5050145;28;20388;-59
2022/11/22 12:59:55;;;;;;;6.70;2.10;;;20.20;60.30;;;;;;5046470;28;20049;-59
2022/11/22 13:02:26;;;;;;;4.68;2.10;;;20.20;60.30;;;;;;5034816;28;20400;-59
2022/11/22 13:05:00;;;;;;;4.10;1.80;;;20.20;60.30;;;;;;5050172;28;20446;-59
2022/11/22 13:07:34;;;;;;;4.25;2.00;;;20.20;60.30;;;;;;5049847;28;20037;-59
2022/11/22 13:10:07;;;;;;;8.05;2.00;;;20.30;60.40;;;;;;5051624;28;20053;-59
2022/11/22 13:12:37;;;;;;;5.47;1.92;;;20.20;60.40;;;;;;5033809;28;20041;-59
2022/11/22 13:15:03;;;;;;;5.95;1.77;;;20.20;60.40;;;;;;5050851;28;20049;-59